Time;durP1;ratioP1;P1;durP2;ratioP2;P2;SDS_P1;SDS_P2;PMS_P1;PMS_P2;Temp;Humidity;BMP_temperature;BMP_pressure;BME280_temperature;BME280_humidity;BME280_pressure;Samples;Min_cycle;Max_cycle;Signal;HPM_P1;HPM_P2
2023/05/23 05:00:36;;;;;;;50.93;45.70;;;19.00;97.20;;;;;;1720848;28;20205;-72
2023/05/23 05:01:27;;;;;;;49.20;43.97;;;19.00;97.20;;;;;;1721499;28;20202;-72
2023/05/23 05:02:19;;;;;;;50.50;45.07;;;19.00;97.20;;;;;;1721500;28;20281;-73
2023/05/23 05:03:10;;;;;;;46.55;41.83;;;19.00;97.20;;;;;;1720849;28;20202;-73
2023/05/23 05:04:02;;;;;;;47.85;42.75;;;19.00;97.20;;;;;;1717468;28;20225;-73
2023/05/23 05:04:53;;;;;;;49.08;43.83;;;19.00;97.20;;;;;;1716929;28;20213;-73
2023/05/23 05:05:44;;;;;;;47.60;42.47;;;19.00;97.20;;;;;;1718933;28;20193;-74
2023/05/23 05:06:35;;;;;;;49.22;44.13;;;19.00;97.20;;;;;;1721452;28;20602;-74
2023/05/23 05:07:29;;;;;;;51.17;45.33;;;19.00;97.20;;;;;;1721522;28;20256;-74
2023/05/23 05:08:19;;;;;;;48.35;43.35;;;19.00;97.20;;;;;;1721379;28;20983;-73
2023/05/23 05:09:11;;;;;;;50.97;45.60;;;19.00;97.20;;;;;;1721251;28;20591;-74
2023/05/23 05:10:02;;;;;;;49.50;44.47;;;19.00;97.20;;;;;;1721406;28;20198;-74
2023/05/23 05:10:54;;;;;;;48.70;43.67;;;19.10;97.20;;;;;;1721052;28;20236;-74
2023/05/23 05:11:45;;;;;;;48.40;43.55;;;19.10;97.20;;;;;;1721197;28;20448;-74
2023/05/23 05:12:36;;;;;;;48.03;43.00;;;19.10;97.20;;;;;;1721138;28;20204;-74
2023/05/23 05:13:27;;;;;;;48.03;42.83;;;19.10;97.20;;;;;;1721348;28;20732;-74
2023/05/23 05:14:19;;;;;;;48.50;43.00;;;19.10;97.20;;;;;;1721358;28;20653;-72
2023/05/23 05:15:10;;;;;;;51.03;45.58;;;19.10;97.20;;;;;;1720411;28;20198;-73
2023/05/23 05:16:03;;;;;;;50.83;45.67;;;19.20;97.20;;;;;;1721398;28;20825;-72
2023/05/23 05:16:56;;;;;;;44.63;39.92;;;19.20;97.20;;;;;;1721389;28;20205;-72
2023/05/23 05:17:48;;;;;;;48.65;43.20;;;19.20;97.20;;;;;;1721442;28;20201;-73
2023/05/23 05:18:39;;;;;;;46.97;42.30;;;19.20;97.20;;;;;;1721309;28;20208;-72
2023/05/23 05:19:30;;;;;;;46.95;42.05;;;19.20;97.20;;;;;;1721430;28;20208;-72
2023/05/23 05:20:21;;;;;;;46.90;42.28;;;19.30;97.20;;;;;;1721344;28;20573;-72
2023/05/23 05:21:13;;;;;;;50.20;44.73;;;19.30;97.20;;;;;;1721322;28;20284;-72
2023/05/23 05:22:04;;;;;;;47.72;42.85;;;19.30;97.20;;;;;;1721471;28;20209;-72
2023/05/23 05:22:57;;;;;;;49.27;44.50;;;19.40;97.20;;;;;;1720819;28;20225;-72
2023/05/23 05:23:47;;;;;;;48.47;43.75;;;19.40;97.20;;;;;;1720621;28;20702;-72
2023/05/23 05:24:40;;;;;;;51.47;46.20;;;19.40;97.20;;;;;;1720462;28;20193;-72
2023/05/23 05:25:31;;;;;;;46.13;41.53;;;19.40;97.20;;;;;;1721007;28;20205;-72
2023/05/23 05:26:23;;;;;;;47.83;42.92;;;19.40;97.20;;;;;;1721342;28;20232;-72
2023/05/23 05:27:14;;;;;;;48.15;42.90;;;19.40;97.20;;;;;;1721283;28;20201;-72
2023/05/23 05:28:05;;;;;;;46.63;41.97;;;19.40;97.20;;;;;;1721320;28;20284;-72
2023/05/23 05:28:57;;;;;;;49.03;43.90;;;19.40;97.20;;;;;;1721287;28;20215;-72
2023/05/23 05:29:50;;;;;;;49.63;44.53;;;19.40;97.20;;;;;;1721346;28;20283;-72
2023/05/23 05:30:41;;;;;;;46.65;41.70;;;19.40;97.20;;;;;;1721129;28;20237;-74
2023/05/23 05:31:34;;;;;;;45.67;40.77;;;19.40;97.20;;;;;;1721370;28;20296;-72
2023/05/23 05:32:25;;;;;;;47.63;42.92;;;19.40;97.20;;;;;;1720912;28;20448;-72
2023/05/23 05:33:17;;;;;;;48.17;43.00;;;19.40;97.20;;;;;;1721275;28;20205;-72
2023/05/23 05:34:09;;;;;;;48.70;43.90;;;19.40;97.20;;;;;;1720406;28;20212;-72
2023/05/23 05:35:01;;;;;;;48.80;43.97;;;19.40;97.20;;;;;;1721433;28;20206;-73
2023/05/23 05:35:52;;;;;;;47.53;42.80;;;19.40;97.20;;;;;;1721136;28;20201;-72
2023/05/23 05:36:46;;;;;;;49.47;43.75;;;19.40;97.20;;;;;;1721275;28;20198;-72
2023/05/23 05:37:38;;;;;;;46.70;42.30;;;19.40;97.20;;;;;;1721276;28;20717;-73
2023/05/23 05:38:29;;;;;;;47.65;43.00;;;19.40;97.20;;;;;;1721257;28;20208;-72
2023/05/23 05:39:24;;;;;;;48.88;43.88;;;19.40;97.20;;;;;;1721309;28;20285;-72
2023/05/23 05:40:15;;;;;;;47.03;42.42;;;19.40;97.20;;;;;;1721165;28;20201;-72
2023/05/23 05:41:07;;;;;;;46.77;41.97;;;19.40;97.20;;;;;;1721227;28;20194;-72
2023/05/23 05:41:58;;;;;;;47.78;43.03;;;19.40;97.20;;;;;;1721259;28;20201;-72
2023/05/23 05:42:49;;;;;;;48.05;43.40;;;19.50;97.20;;;;;;1720939;28;20205;-72
2023/05/23 05:43:40;;;;;;;48.33;43.03;;;19.50;97.20;;;;;;1721194;28;20205;-72
2023/05/23 05:44:32;;;;;;;48.97;44.30;;;19.50;97.20;;;;;;1720890;28;20193;-72
2023/05/23 05:45:23;;;;;;;46.42;42.13;;;19.40;97.20;;;;;;1721181;28;20201;-73
2023/05/23 05:46:14;;;;;;;45.77;41.43;;;19.40;97.20;;;;;;1721080;28;20212;-72
2023/05/23 05:47:06;;;;;;;49.15;44.20;;;19.50;97.20;;;;;;1721291;28;20673;-72
2023/05/23 05:47:58;;;;;;;47.40;42.65;;;19.50;97.20;;;;;;1721169;28;20205;-72
2023/05/23 05:48:49;;;;;;;45.92;41.33;;;19.50;97.20;;;;;;1721184;28;20209;-72
2023/05/23 05:49:41;;;;;;;47.70;42.97;;;19.40;97.20;;;;;;1721185;28;20675;-72
2023/05/23 05:50:31;;;;;;;48.42;43.70;;;19.40;97.20;;;;;;1721068;28;20229;-72
2023/05/23 05:51:23;;;;;;;48.67;43.60;;;19.40;97.20;;;;;;1721262;28;20193;-72
2023/05/23 05:52:14;;;;;;;51.50;46.35;;;19.40;97.20;;;;;;1721144;28;20217;-72
2023/05/23 05:53:07;;;;;;;49.80;45.00;;;19.40;97.20;;;;;;1720768;28;20201;-72
2023/05/23 05:53:57;;;;;;;49.15;44.42;;;19.40;97.20;;;;;;1721082;28;20549;-72
2023/05/23 05:54:49;;;;;;;46.57;41.87;;;19.40;97.20;;;;;;1720752;28;20255;-72
2023/05/23 05:55:40;;;;;;;48.72;43.95;;;19.40;97.20;;;;;;1721129;28;20205;-74
2023/05/23 05:56:31;;;;;;;51.83;46.63;;;19.40;97.20;;;;;;1720886;28;20197;-72
2023/05/23 05:57:22;;;;;;;49.70;44.65;;;19.40;97.20;;;;;;1721209;28;20626;-72
2023/05/23 05:58:14;;;;;;;48.33;43.40;;;19.40;97.20;;;;;;1721167;28;20213;-72
2023/05/23 05:59:04;;;;;;;49.70;44.70;;;19.40;97.20;;;;;;1721071;28;20226;-72
2023/05/23 05:59:56;;;;;;;47.67;43.07;;;19.40;97.20;;;;;;1721139;28;20211;-72
2023/05/23 06:00:47;;;;;;;51.47;46.33;;;19.40;97.20;;;;;;1721000;28;20578;-72
2023/05/23 06:01:39;;;;;;;48.33;43.45;;;19.40;97.20;;;;;;1721071;28;20677;-73
2023/05/23 06:02:31;;;;;;;47.85;43.10;;;19.40;97.20;;;;;;1720800;28;20295;-73
2023/05/23 06:03:23;;;;;;;50.35;45.45;;;19.40;97.20;;;;;;1721076;28;20205;-72
2023/05/23 06:04:14;;;;;;;49.55;44.35;;;19.40;97.20;;;;;;1720711;28;20201;-72
2023/05/23 06:05:06;;;;;;;52.80;47.43;;;19.40;97.20;;;;;;1721140;28;20197;-72
2023/05/23 06:05:58;;;;;;;51.90;46.60;;;19.40;97.20;;;;;;1721057;28;20216;-72
2023/05/23 06:06:50;;;;;;;48.58;43.67;;;19.40;97.20;;;;;;1721083;28;20232;-72
2023/05/23 06:07:41;;;;;;;47.03;42.28;;;19.40;97.20;;;;;;1721060;28;20307;-72
2023/05/23 06:08:33;;;;;;;47.67;43.00;;;19.40;97.20;;;;;;1720975;28;20231;-72
2023/05/23 06:09:23;;;;;;;47.75;42.95;;;19.50;97.20;;;;;;1721016;28;20201;-72
2023/05/23 06:10:15;;;;;;;47.00;42.30;;;19.50;97.20;;;;;;1720957;28;20683;-72
2023/05/23 06:11:06;;;;;;;48.17;43.58;;;19.50;97.20;;;;;;1721013;28;20276;-72
2023/05/23 06:11:58;;;;;;;50.50;45.13;;;19.50;97.20;;;;;;1721023;28;20189;-72
2023/05/23 06:12:49;;;;;;;47.75;42.95;;;19.60;97.20;;;;;;1720859;28;20684;-72
2023/05/23 06:13:40;;;;;;;47.07;42.37;;;19.60;97.20;;;;;;1720844;28;20570;-72
2023/05/23 06:14:31;;;;;;;46.20;41.83;;;19.60;97.20;;;;;;1720755;28;20205;-72
2023/05/23 06:15:23;;;;;;;48.70;43.57;;;19.60;97.20;;;;;;1721018;28;20212;-72
2023/05/23 06:16:14;;;;;;;45.97;41.35;;;19.60;97.20;;;;;;1721036;28;20223;-72
2023/05/23 06:17:05;;;;;;;49.40;44.33;;;19.60;97.20;;;;;;1720934;28;20200;-72
2023/05/23 06:17:57;;;;;;;46.50;42.03;;;19.70;97.20;;;;;;1721017;28;20959;-72
2023/05/23 06:18:49;;;;;;;47.17;42.67;;;19.70;97.20;;;;;;1720965;28;20228;-70
2023/05/23 06:19:40;;;;;;;47.13;42.28;;;19.70;97.20;;;;;;1721004;28;20205;-72
2023/05/23 06:20:31;;;;;;;47.23;42.40;;;19.70;97.20;;;;;;1720997;28;20229;-72
2023/05/23 06:21:22;;;;;;;45.80;41.08;;;19.70;97.20;;;;;;1721028;28;20207;-70
2023/05/23 06:22:14;;;;;;;46.07;41.67;;;19.70;97.20;;;;;;1721080;28;20197;-72
2023/05/23 06:23:05;;;;;;;45.42;40.55;;;19.70;97.20;;;;;;1720638;28;20209;-72
2023/05/23 06:23:57;;;;;;;44.87;40.27;;;19.70;97.20;;;;;;1720976;28;20296;-73
2023/05/23 06:24:47;;;;;;;48.58;43.97;;;19.70;97.20;;;;;;1719012;28;20193;-72
2023/05/23 06:25:38;;;;;;;47.57;42.80;;;19.70;97.20;;;;;;1720253;28;20746;-73
2023/05/23 06:26:30;;;;;;;47.27;42.80;;;19.70;97.20;;;;;;1720110;28;20205;-72
2023/05/23 06:27:20;;;;;;;46.80;42.30;;;19.70;97.20;;;;;;1717800;28;20676;-72
2023/05/23 06:28:12;;;;;;;48.87;43.80;;;19.80;97.20;;;;;;1720531;28;20862;-73
2023/05/23 06:29:03;;;;;;;46.95;42.35;;;19.80;97.20;;;;;;1720337;28;20197;-73
2023/05/23 06:29:55;;;;;;;48.27;43.50;;;19.80;97.20;;;;;;1720431;28;20197;-73
2023/05/23 06:30:45;;;;;;;51.30;46.30;;;19.80;97.20;;;;;;1720209;28;20229;-72
2023/05/23 06:31:37;;;;;;;48.73;44.10;;;19.80;97.20;;;;;;1720323;28;20205;-73
2023/05/23 06:32:28;;;;;;;46.20;41.60;;;19.90;97.20;;;;;;1719360;28;20215;-73
2023/05/23 06:33:21;;;;;;;47.80;43.10;;;19.90;97.20;;;;;;1717821;28;20204;-72
2023/05/23 06:34:12;;;;;;;48.92;43.97;;;19.90;97.20;;;;;;1720322;28;20205;-73
2023/05/23 06:35:04;;;;;;;45.30;41.00;;;19.90;97.20;;;;;;1719792;28;20641;-72
2023/05/23 06:35:55;;;;;;;46.65;42.15;;;20.00;97.20;;;;;;1720437;28;20209;-72
2023/05/23 06:36:47;;;;;;;47.27;42.77;;;20.00;97.20;;;;;;1720442;28;20233;-73
2023/05/23 06:37:42;;;;;;;44.30;39.85;;;20.00;97.20;;;;;;1720057;28;20201;-71
2023/05/23 06:38:33;;;;;;;45.83;41.40;;;20.00;97.20;;;;;;1716310;28;20232;-74
2023/05/23 06:39:25;;;;;;;44.45;39.90;;;20.10;97.20;;;;;;1719620;28;20217;-74
2023/05/23 06:40:17;;;;;;;47.10;42.50;;;20.10;97.20;;;;;;1720278;28;20201;-71
2023/05/23 06:41:08;;;;;;;44.45;40.25;;;20.10;97.20;;;;;;1720501;28;20208;-71
2023/05/23 06:42:00;;;;;;;44.40;40.03;;;20.10;97.20;;;;;;1720566;28;20661;-71
2023/05/23 06:42:51;;;;;;;46.25;41.75;;;20.10;97.20;;;;;;1719625;28;20205;-71
2023/05/23 06:43:42;;;;;;;47.00;42.50;;;20.10;97.20;;;;;;1720423;28;20236;-72
2023/05/23 06:44:33;;;;;;;49.55;44.80;;;20.10;97.20;;;;;;1720251;28;20259;-74
2023/05/23 06:45:25;;;;;;;50.47;45.67;;;20.10;97.20;;;;;;1720559;28;20209;-74
2023/05/23 06:46:17;;;;;;;45.97;41.50;;;20.10;97.20;;;;;;1719599;28;20587;-74
2023/05/23 06:47:08;;;;;;;47.37;42.70;;;20.10;97.20;;;;;;1720080;28;20346;-74
2023/05/23 06:48:00;;;;;;;48.13;43.33;;;20.10;97.20;;;;;;1719993;28;20204;-71
2023/05/23 06:48:53;;;;;;;47.75;43.25;;;20.00;97.20;;;;;;1720423;28;20284;-71
2023/05/23 06:49:44;;;;;;;48.05;43.35;;;20.00;97.20;;;;;;1720652;28;20205;-71
2023/05/23 06:50:36;;;;;;;47.70;43.10;;;20.00;97.20;;;;;;1720742;28;20221;-74
2023/05/23 06:51:26;;;;;;;48.38;43.88;;;20.00;97.20;;;;;;1720647;28;20583;-72
2023/05/23 06:52:18;;;;;;;45.80;41.10;;;20.00;97.20;;;;;;1720462;28;20562;-72
2023/05/23 06:53:09;;;;;;;45.90;41.38;;;20.00;97.20;;;;;;1719923;28;20201;-72
2023/05/23 06:54:00;;;;;;;46.60;42.07;;;20.00;97.20;;;;;;1720235;28;20208;-71
2023/05/23 06:54:51;;;;;;;44.50;40.50;;;20.00;97.20;;;;;;1720290;28;20216;-72
2023/05/23 06:55:43;;;;;;;47.77;43.30;;;20.00;97.20;;;;;;1720609;28;20224;-71
2023/05/23 06:56:34;;;;;;;48.00;42.97;;;20.00;97.20;;;;;;1720578;28;20209;-74
2023/05/23 06:57:25;;;;;;;46.47;41.93;;;20.00;97.20;;;;;;1720584;28;20197;-71
2023/05/23 06:58:16;;;;;;;46.53;42.13;;;20.00;97.20;;;;;;1720445;28;20579;-74
2023/05/23 06:59:08;;;;;;;44.57;40.33;;;20.00;97.20;;;;;;1720562;28;20554;-72
2023/05/23 06:59:59;;;;;;;45.47;41.17;;;19.90;97.20;;;;;;1720557;28;20436;-74
2023/05/23 07:00:50;;;;;;;45.03;40.60;;;19.90;97.20;;;;;;1720551;28;20225;-74
2023/05/23 07:01:41;;;;;;;46.72;42.28;;;19.90;97.20;;;;;;1720477;28;20228;-74
2023/05/23 07:02:33;;;;;;;43.40;39.27;;;19.90;97.20;;;;;;1719895;28;20207;-74
2023/05/23 07:03:23;;;;;;;45.22;41.13;;;19.90;97.20;;;;;;1720411;28;20228;-72
2023/05/23 07:04:16;;;;;;;43.87;39.77;;;19.90;97.20;;;;;;1720474;28;20219;-71
2023/05/23 07:05:08;;;;;;;44.45;40.50;;;19.90;97.20;;;;;;1720565;28;20212;-71
2023/05/23 07:05:59;;;;;;;45.25;40.95;;;19.90;97.20;;;;;;1720482;28;20233;-71
2023/05/23 07:06:51;;;;;;;41.85;38.05;;;19.90;97.20;;;;;;1720419;28;20680;-71
2023/05/23 07:07:43;;;;;;;45.95;41.45;;;19.90;97.20;;;;;;1720035;28;20255;-71
2023/05/23 07:08:34;;;;;;;45.45;41.25;;;19.90;97.20;;;;;;1720551;28;20213;-72
2023/05/23 07:09:26;;;;;;;42.23;38.00;;;19.90;97.20;;;;;;1720260;28;20203;-71
2023/05/23 07:10:16;;;;;;;43.75;39.55;;;19.90;97.20;;;;;;1719771;28;20235;-74
2023/05/23 07:11:08;;;;;;;44.67;40.43;;;19.90;97.20;;;;;;1720615;28;20197;-72
2023/05/23 07:11:59;;;;;;;41.88;37.92;;;19.90;97.20;;;;;;1720429;28;20282;-75
2023/05/23 07:12:50;;;;;;;42.83;38.93;;;19.80;97.20;;;;;;1719899;28;20208;-72
2023/05/23 07:13:41;;;;;;;41.28;37.42;;;19.80;97.20;;;;;;1719824;28;20201;-74
2023/05/23 07:14:34;;;;;;;39.73;36.03;;;19.80;97.20;;;;;;1720596;28;20205;-71
2023/05/23 07:15:25;;;;;;;40.60;36.88;;;19.80;97.20;;;;;;1720103;28;20197;-72
2023/05/23 07:16:17;;;;;;;39.50;35.70;;;19.70;97.20;;;;;;1719888;28;20228;-71
2023/05/23 07:17:07;;;;;;;42.00;37.80;;;19.70;97.20;;;;;;1720255;28;20201;-70
2023/05/23 07:17:59;;;;;;;41.57;37.47;;;19.80;97.20;;;;;;1720668;28;20201;-71
2023/05/23 07:18:50;;;;;;;40.58;36.80;;;19.70;97.20;;;;;;1720629;28;20267;-71
2023/05/23 07:19:43;;;;;;;40.50;36.70;;;19.70;97.20;;;;;;1720677;28;20193;-71
2023/05/23 07:20:34;;;;;;;40.55;36.70;;;19.70;97.20;;;;;;1720590;28;20225;-71
2023/05/23 07:21:25;;;;;;;41.50;37.40;;;19.60;97.20;;;;;;1720611;28;20193;-71
2023/05/23 07:22:16;;;;;;;42.55;38.63;;;19.60;97.20;;;;;;1720501;28;20216;-70
2023/05/23 07:23:08;;;;;;;40.57;36.83;;;19.60;97.20;;;;;;1719881;28;20688;-71
2023/05/23 07:23:59;;;;;;;40.92;37.25;;;19.60;97.20;;;;;;1720126;28;20224;-72
2023/05/23 07:24:50;;;;;;;41.27;37.47;;;19.60;97.20;;;;;;1720354;28;20211;-72
2023/05/23 07:25:41;;;;;;;41.47;37.55;;;19.50;97.20;;;;;;1716383;28;20228;-72
2023/05/23 07:26:33;;;;;;;41.67;37.80;;;19.50;97.20;;;;;;1720531;28;20190;-71
2023/05/23 07:27:25;;;;;;;41.72;37.78;;;19.50;97.20;;;;;;1720163;28;20519;-72
2023/05/23 07:28:17;;;;;;;40.03;36.08;;;19.50;97.20;;;;;;1720550;28;20201;-72
2023/05/23 07:29:07;;;;;;;40.05;36.35;;;19.50;97.20;;;;;;1720059;28;20193;-71
2023/05/23 07:30:00;;;;;;;38.20;34.80;;;19.40;97.20;;;;;;1719991;28;20201;-71
2023/05/23 07:30:51;;;;;;;40.22;36.53;;;19.40;97.20;;;;;;1720348;28;20287;-72
2023/05/23 07:31:42;;;;;;;38.70;35.23;;;19.40;97.20;;;;;;1720456;28;20259;-71
2023/05/23 07:32:33;;;;;;;38.80;35.03;;;19.40;97.20;;;;;;1719782;28;20615;-71
2023/05/23 07:33:25;;;;;;;40.73;36.77;;;19.40;97.20;;;;;;1720334;28;20201;-71
2023/05/23 07:34:16;;;;;;;37.65;34.15;;;19.40;97.20;;;;;;1719744;28;20569;-71
2023/05/23 07:35:09;;;;;;;37.83;34.43;;;19.40;97.20;;;;;;1720230;28;20193;-71
2023/05/23 07:36:00;;;;;;;35.20;31.95;;;19.40;97.20;;;;;;1720482;28;20201;-71
2023/05/23 07:36:52;;;;;;;38.40;34.80;;;19.40;97.20;;;;;;1720549;28;20228;-71
2023/05/23 07:37:43;;;;;;;37.58;34.13;;;19.40;97.20;;;;;;1720466;28;20444;-71
2023/05/23 07:38:34;;;;;;;38.93;35.20;;;19.40;97.20;;;;;;1720436;28;20205;-71
2023/05/23 07:39:26;;;;;;;39.08;35.55;;;19.40;97.20;;;;;;1720626;28;20208;-71
2023/05/23 07:40:18;;;;;;;39.88;36.17;;;19.30;97.20;;;;;;1720447;28;20240;-71
2023/05/23 07:41:09;;;;;;;41.38;37.40;;;19.30;97.20;;;;;;1720529;28;20583;-71
2023/05/23 07:42:00;;;;;;;39.10;35.47;;;19.30;97.20;;;;;;1720519;28;20266;-72
2023/05/23 07:42:52;;;;;;;39.50;35.78;;;19.20;97.20;;;;;;1719760;28;20236;-72
2023/05/23 07:43:43;;;;;;;41.67;37.38;;;19.20;97.20;;;;;;1720158;28;20204;-72
2023/05/23 07:44:34;;;;;;;42.13;38.10;;;19.20;97.20;;;;;;1720413;28;20223;-72
2023/05/23 07:45:26;;;;;;;41.83;37.83;;;19.20;97.20;;;;;;1720361;28;20197;-72
2023/05/23 07:46:16;;;;;;;40.15;36.35;;;19.20;97.20;;;;;;1720380;28;20204;-72
2023/05/23 07:47:08;;;;;;;38.83;35.27;;;19.10;97.20;;;;;;1720438;28;20683;-72
2023/05/23 07:47:59;;;;;;;40.97;36.88;;;19.10;97.20;;;;;;1720401;28;20201;-72
2023/05/23 07:48:51;;;;;;;44.00;39.70;;;19.10;97.20;;;;;;1720496;28;20383;-72
2023/05/23 07:49:41;;;;;;;44.28;40.25;;;19.10;97.20;;;;;;1720411;28;20216;-72
2023/05/23 07:50:34;;;;;;;41.13;37.03;;;19.10;97.20;;;;;;1720454;28;20223;-72
2023/05/23 07:51:25;;;;;;;41.78;37.85;;;19.10;97.20;;;;;;1720423;28;20205;-72
2023/05/23 07:52:17;;;;;;;40.72;36.67;;;19.10;97.20;;;;;;1720333;28;20201;-72
2023/05/23 07:53:08;;;;;;;42.63;38.72;;;19.10;97.20;;;;;;1719782;28;20201;-72
2023/05/23 07:54:00;;;;;;;44.37;40.27;;;19.10;97.20;;;;;;1720166;28;20196;-72
2023/05/23 07:54:50;;;;;;;42.28;38.22;;;19.10;97.20;;;;;;1720447;28;20271;-72
2023/05/23 07:55:42;;;;;;;44.90;40.50;;;19.10;97.20;;;;;;1720393;28;20259;-72
2023/05/23 07:56:33;;;;;;;46.13;41.63;;;19.20;97.20;;;;;;1720362;28;20209;-72
2023/05/23 07:57:25;;;;;;;46.50;42.20;;;19.20;97.20;;;;;;1720877;28;20209;-72
2023/05/23 07:58:16;;;;;;;43.88;39.78;;;19.20;97.20;;;;;;1721848;28;20212;-72
2023/05/23 07:59:08;;;;;;;44.30;40.20;;;19.20;97.20;;;;;;1721896;28;20229;-72
2023/05/23 07:59:59;;;;;;;45.30;41.10;;;19.20;97.20;;;;;;1721834;28;20216;-73
2023/05/23 08:00:51;;;;;;;45.50;41.30;;;19.20;97.20;;;;;;1721767;28;20289;-72
2023/05/23 08:01:43;;;;;;;44.20;39.90;;;19.20;97.20;;;;;;1721703;28;20204;-72
2023/05/23 08:02:35;;;;;;;46.22;41.83;;;19.20;97.20;;;;;;1721053;28;20235;-72
2023/05/23 08:03:25;;;;;;;44.50;40.25;;;19.20;97.20;;;;;;1721566;28;20619;-73
2023/05/23 08:04:17;;;;;;;44.27;40.17;;;19.20;97.20;;;;;;1722032;28;20201;-72
2023/05/23 08:05:09;;;;;;;48.33;43.65;;;19.30;97.20;;;;;;1722051;28;20232;-73
2023/05/23 08:06:02;;;;;;;45.42;41.05;;;19.30;97.20;;;;;;1722019;28;20240;-72
2023/05/23 08:06:54;;;;;;;45.42;41.00;;;19.30;97.20;;;;;;1722044;28;20205;-72
2023/05/23 08:07:45;;;;;;;45.72;41.42;;;19.30;97.20;;;;;;1722001;28;20392;-73
2023/05/23 08:08:37;;;;;;;42.85;38.75;;;19.30;97.20;;;;;;1722036;28;20587;-73
2023/05/23 08:09:28;;;;;;;48.65;43.85;;;19.30;97.20;;;;;;1722045;28;20255;-72
2023/05/23 08:10:20;;;;;;;45.60;41.30;;;19.30;97.20;;;;;;1721948;28;20676;-72
2023/05/23 08:11:10;;;;;;;44.33;40.20;;;19.30;97.20;;;;;;1721794;28;20216;-72
2023/05/23 08:12:02;;;;;;;44.23;40.03;;;19.30;97.20;;;;;;1721922;28;20292;-72
2023/05/23 08:12:55;;;;;;;43.97;39.90;;;19.30;97.20;;;;;;1721484;28;20212;-72
2023/05/23 08:13:46;;;;;;;42.58;38.75;;;19.30;97.20;;;;;;1721589;28;20235;-72
2023/05/23 08:14:37;;;;;;;44.23;39.83;;;19.40;97.20;;;;;;1722257;28;20205;-73
2023/05/23 08:15:28;;;;;;;43.30;39.10;;;19.40;97.20;;;;;;1722026;28;20201;-72
2023/05/23 08:16:20;;;;;;;44.57;40.23;;;19.50;97.20;;;;;;1722118;28;20215;-73
2023/05/23 08:17:12;;;;;;;44.05;39.95;;;19.50;97.20;;;;;;1722014;28;20664;-72
2023/05/23 08:18:04;;;;;;;42.55;38.50;;;19.50;97.20;;;;;;1722594;28;20708;-72
2023/05/23 08:18:55;;;;;;;42.45;38.55;;;19.60;97.20;;;;;;1721931;28;20208;-72
2023/05/23 08:19:47;;;;;;;41.67;37.93;;;19.70;97.20;;;;;;1722199;28;20205;-72
2023/05/23 08:20:37;;;;;;;41.55;37.45;;;19.70;97.20;;;;;;1721881;28;20708;-72
2023/05/23 08:21:30;;;;;;;41.50;37.50;;;19.70;97.20;;;;;;1721933;28;20571;-73
2023/05/23 08:22:21;;;;;;;40.38;36.65;;;19.80;97.20;;;;;;1721221;28;20700;-72
2023/05/23 08:23:13;;;;;;;43.27;39.10;;;19.80;97.20;;;;;;1721788;28;20201;-72
2023/05/23 08:24:04;;;;;;;41.22;37.42;;;19.80;97.20;;;;;;1721547;28;20624;-73
2023/05/23 08:24:56;;;;;;;40.50;36.50;;;19.80;97.20;;;;;;1721921;28;20630;-72
2023/05/23 08:25:47;;;;;;;41.15;37.35;;;19.80;97.20;;;;;;1721706;28;20471;-72
2023/05/23 08:26:38;;;;;;;39.57;36.13;;;19.80;97.20;;;;;;1721628;28;20209;-72
2023/05/23 08:27:30;;;;;;;39.65;35.85;;;19.80;97.20;;;;;;1721682;28;20201;-72
2023/05/23 08:28:21;;;;;;;40.55;36.80;;;19.80;97.20;;;;;;1721585;28;20207;-72
2023/05/23 08:29:12;;;;;;;38.03;34.55;;;19.90;97.20;;;;;;1721603;28;20205;-73
2023/05/23 08:30:06;;;;;;;38.30;34.83;;;19.90;97.20;;;;;;1721609;28;20207;-73
2023/05/23 08:30:57;;;;;;;37.45;33.88;;;20.00;97.20;;;;;;1721497;28;20236;-73
2023/05/23 08:31:48;;;;;;;37.77;34.40;;;20.10;97.20;;;;;;1721495;28;20240;-72
2023/05/23 08:32:39;;;;;;;37.88;34.30;;;20.10;97.20;;;;;;1720823;28;20456;-73
2023/05/23 08:33:31;;;;;;;39.87;35.97;;;20.20;97.20;;;;;;1720730;28;20312;-72
2023/05/23 08:34:22;;;;;;;36.03;32.83;;;20.20;97.20;;;;;;1721155;28;20256;-73
2023/05/23 08:35:13;;;;;;;37.00;33.30;;;20.30;97.20;;;;;;1721697;28;20205;-73
2023/05/23 08:36:05;;;;;;;36.78;33.40;;;20.30;97.20;;;;;;1721783;28;20201;-72
2023/05/23 08:36:57;;;;;;;36.45;32.95;;;20.30;97.20;;;;;;1721599;28;20229;-73
2023/05/23 08:37:50;;;;;;;35.13;32.00;;;20.30;97.20;;;;;;1721634;28;20274;-72
2023/05/23 08:38:42;;;;;;;37.80;34.30;;;20.30;97.20;;;;;;1721570;28;20229;-72
2023/05/23 08:39:34;;;;;;;35.63;32.30;;;20.30;97.20;;;;;;1721648;28;20668;-72
2023/05/23 08:40:28;;;;;;;35.60;32.38;;;20.20;97.20;;;;;;1721515;28;20265;-73
2023/05/23 08:41:21;;;;;;;34.38;31.27;;;20.20;97.20;;;;;;1721428;28;20300;-73
2023/05/23 08:42:12;;;;;;;35.08;31.85;;;20.20;97.20;;;;;;1721555;28;20209;-72
2023/05/23 08:43:04;;;;;;;35.50;32.20;;;20.10;97.20;;;;;;1720882;28;20215;-72
2023/05/23 08:43:55;;;;;;;36.08;32.88;;;20.10;97.20;;;;;;1721175;28;20205;-73
2023/05/23 08:44:47;;;;;;;36.83;33.10;;;20.00;97.20;;;;;;1721525;28;20284;-72
2023/05/23 08:45:38;;;;;;;34.03;30.85;;;20.00;97.20;;;;;;1721462;28;20212;-73
2023/05/23 08:46:32;;;;;;;33.97;30.98;;;19.90;97.20;;;;;;1721513;28;20291;-72
2023/05/23 08:47:23;;;;;;;33.63;30.42;;;19.90;97.20;;;;;;1721443;28;20212;-72
2023/05/23 08:48:18;;;;;;;33.78;30.77;;;19.90;97.20;;;;;;1721441;28;20308;-73
2023/05/23 08:49:09;;;;;;;33.63;30.73;;;19.90;97.20;;;;;;1721584;28;20205;-72
2023/05/23 08:50:02;;;;;;;34.97;31.97;;;19.80;97.20;;;;;;1721522;28;20201;-73
2023/05/23 08:50:53;;;;;;;33.17;30.27;;;19.80;97.20;;;;;;1721081;28;20221;-72
2023/05/23 08:51:46;;;;;;;34.13;30.90;;;19.80;97.20;;;;;;1721463;28;20197;-73
2023/05/23 08:52:43;;;;;;;34.78;31.17;;;19.80;97.20;;;;;;1720667;28;20943;-72
2023/05/23 08:53:37;;;;;;;33.53;30.42;;;19.80;97.20;;;;;;1721544;28;20692;-72
2023/05/23 08:54:28;;;;;;;33.72;30.73;;;19.80;97.20;;;;;;1721490;28;20603;-72
2023/05/23 08:55:21;;;;;;;33.63;30.42;;;19.70;97.20;;;;;;1721456;28;20197;-72
2023/05/23 08:56:12;;;;;;;32.50;29.30;;;19.70;97.20;;;;;;1721495;28;20201;-72
2023/05/23 08:57:04;;;;;;;32.72;29.83;;;19.70;97.20;;;;;;1721441;28;20204;-73
2023/05/23 08:57:58;;;;;;;33.70;30.70;;;19.70;97.20;;;;;;1721394;28;20209;-73
2023/05/23 08:58:52;;;;;;;32.80;29.90;;;19.70;97.20;;;;;;1721408;28;20240;-73
2023/05/23 08:59:43;;;;;;;31.02;28.10;;;19.70;97.20;;;;;;1721555;28;20282;-72
2023/05/23 09:00:35;;;;;;;30.65;27.92;;;19.70;97.20;;;;;;1721075;28;20223;-72
2023/05/23 09:01:26;;;;;;;32.92;29.88;;;19.80;97.20;;;;;;1721426;28;20228;-73
2023/05/23 09:02:18;;;;;;;31.23;28.42;;;19.80;97.20;;;;;;1721461;28;20189;-72
2023/05/23 09:03:11;;;;;;;29.35;26.70;;;19.80;97.20;;;;;;1720963;28;20208;-73
2023/05/23 09:04:05;;;;;;;32.35;29.27;;;19.80;97.20;;;;;;1721523;28;20201;-73
2023/05/23 09:04:56;;;;;;;29.40;26.85;;;19.80;97.20;;;;;;1721550;28;20263;-73
2023/05/23 09:05:49;;;;;;;28.37;25.70;;;19.80;97.20;;;;;;1721712;28;20212;-73
2023/05/23 09:06:40;;;;;;;29.30;26.80;;;19.70;97.20;;;;;;1721397;28;20213;-73
2023/05/23 09:07:31;;;;;;;28.73;26.03;;;19.80;97.20;;;;;;1721611;28;20221;-73
2023/05/23 09:08:24;;;;;;;29.55;26.83;;;19.80;97.20;;;;;;1721520;28;20221;-73
2023/05/23 09:09:16;;;;;;;29.33;26.90;;;19.80;97.20;;;;;;1720711;28;20205;-73
2023/05/23 09:10:09;;;;;;;29.83;27.02;;;19.80;97.20;;;;;;1721503;28;20201;-73
2023/05/23 09:11:02;;;;;;;27.95;25.15;;;19.80;97.20;;;;;;1721178;28;20596;-73
2023/05/23 09:11:54;;;;;;;28.73;25.83;;;19.80;97.20;;;;;;1721620;28;20248;-72
2023/05/23 09:12:46;;;;;;;29.52;26.60;;;19.80;97.20;;;;;;1720871;28;20606;-73
2023/05/23 09:13:39;;;;;;;28.30;25.60;;;19.80;97.20;;;;;;1721469;28;20287;-72
2023/05/23 09:14:30;;;;;;;28.73;26.13;;;19.80;97.20;;;;;;1721472;28;20553;-73
2023/05/23 09:15:22;;;;;;;28.67;26.13;;;19.90;97.20;;;;;;1721415;28;20224;-73
2023/05/23 09:16:16;;;;;;;29.40;26.80;;;19.90;97.20;;;;;;1721519;28;20255;-72
2023/05/23 09:17:08;;;;;;;29.08;26.48;;;19.90;97.20;;;;;;1721559;28;20201;-72
2023/05/23 09:18:00;;;;;;;29.77;27.08;;;20.00;97.20;;;;;;1721475;28;20669;-73
2023/05/23 09:18:52;;;;;;;29.30;26.55;;;20.00;97.20;;;;;;1721477;28;20215;-72
2023/05/23 09:20:12;;;;;;;30.25;27.40;;;20.10;97.20;;;;;;1722626;28;20209;-73
2023/05/23 09:21:03;;;;;;;28.33;25.70;;;20.10;97.20;;;;;;1719096;28;20201;-72
2023/05/23 09:21:55;;;;;;;27.75;25.30;;;20.20;97.20;;;;;;1721994;28;20201;-73
2023/05/23 09:22:47;;;;;;;28.05;25.65;;;20.20;97.20;;;;;;1720618;28;20232;-73